West Chazy, New York
Current Conditions -  °F | °C
As of 2:53 AM on Thursday 27 Nov 2014 (Local Time) from KPBG Reporting Station
Light Snow Light Snow  
Wind Chill: 17°   Ceiling: 3900
Heat Index: 28°   Visibility: 6mi
Dew Point: 25°   Wind: 15mph
Humidity: 88%   Direction: 350°N
Pressure: 29.98"   Gusts: NA
Location:  44.82°N, 73.51°W
Report Text: KPBG 270753Z AUTO 35013KT 6SM -SN BR FEW022 SCT031 OVC039 M02/M04 A2998 RMK AO2 SLP154 P0000 T10221039
Loading
Personal Weather Stations






























Interactive Weather Map New forecast layout! Learn more

10-Day Weather Forecast

Advertisements
Track Severe Weather on mobile